sensor_id;sensor_type;location;lat;lon;timestamp;P1;durP1;ratioP1;P2;durP2;ratioP2
6832;SDS011;3454;42.654;23.378;2023-02-01T00:00:44;5.50;;;3.20;;
6832;SDS011;3454;42.654;23.378;2023-02-01T00:03:10;5.77;;;3.90;;
6832;SDS011;3454;42.654;23.378;2023-02-01T00:05:37;4.37;;;3.90;;
6832;SDS011;3454;42.654;23.378;2023-02-01T00:08:03;5.17;;;2.90;;
6832;SDS011;3454;42.654;23.378;2023-02-01T00:10:29;4.03;;;3.20;;
6832;SDS011;3454;42.654;23.378;2023-02-01T00:12:55;5.10;;;3.30;;
6832;SDS011;3454;42.654;23.378;2023-02-01T00:15:20;5.83;;;3.57;;
6832;SDS011;3454;42.654;23.378;2023-02-01T00:17:45;4.47;;;3.13;;
6832;SDS011;3454;42.654;23.378;2023-02-01T00:20:11;4.93;;;3.50;;
6832;SDS011;3454;42.654;23.378;2023-02-01T00:22:36;5.20;;;3.53;;
6832;SDS011;3454;42.654;23.378;2023-02-01T00:25:02;4.27;;;3.20;;
6832;SDS011;3454;42.654;23.378;2023-02-01T00:27:28;3.20;;;2.80;;
6832;SDS011;3454;42.654;23.378;2023-02-01T00:29:54;4.43;;;3.30;;
6832;SDS011;3454;42.654;23.378;2023-02-01T00:32:20;5.03;;;3.17;;
6832;SDS011;3454;42.654;23.378;2023-02-01T00:34:46;4.17;;;3.67;;
6832;SDS011;3454;42.654;23.378;2023-02-01T00:37:11;3.57;;;3.27;;
6832;SDS011;3454;42.654;23.378;2023-02-01T00:39:37;6.17;;;3.17;;
6832;SDS011;3454;42.654;23.378;2023-02-01T00:42:02;4.93;;;3.10;;
6832;SDS011;3454;42.654;23.378;2023-02-01T00:44:28;3.83;;;2.90;;
6832;SDS011;3454;42.654;23.378;2023-02-01T00:46:58;3.10;;;2.80;;
6832;SDS011;3454;42.654;23.378;2023-02-01T00:49:23;4.87;;;2.90;;
6832;SDS011;3454;42.654;23.378;2023-02-01T00:51:49;2.67;;;2.40;;
6832;SDS011;3454;42.654;23.378;2023-02-01T00:54:14;3.97;;;2.93;;
6832;SDS011;3454;42.654;23.378;2023-02-01T00:56:40;2.83;;;2.43;;
6832;SDS011;3454;42.654;23.378;2023-02-01T00:59:07;3.63;;;2.63;;
6832;SDS011;3454;42.654;23.378;2023-02-01T01:01:35;3.53;;;2.77;;
6832;SDS011;3454;42.654;23.378;2023-02-01T01:04:01;3.13;;;2.50;;
6832;SDS011;3454;42.654;23.378;2023-02-01T01:06:27;4.07;;;2.60;;
6832;SDS011;3454;42.654;23.378;2023-02-01T01:08:55;2.90;;;2.60;;
6832;SDS011;3454;42.654;23.378;2023-02-01T01:11:22;2.57;;;2.27;;
6832;SDS011;3454;42.654;23.378;2023-02-01T01:13:50;3.73;;;2.40;;
6832;SDS011;3454;42.654;23.378;2023-02-01T01:16:18;3.13;;;2.20;;
6832;SDS011;3454;42.654;23.378;2023-02-01T01:18:45;6.20;;;2.83;;
6832;SDS011;3454;42.654;23.378;2023-02-01T01:21:11;4.70;;;3.00;;
6832;SDS011;3454;42.654;23.378;2023-02-01T01:23:45;6.13;;;3.13;;
6832;SDS011;3454;42.654;23.378;2023-02-01T01:26:16;2.43;;;2.20;;
6832;SDS011;3454;42.654;23.378;2023-02-01T01:28:44;4.07;;;2.40;;
6832;SDS011;3454;42.654;23.378;2023-02-01T01:31:10;4.23;;;2.57;;
6832;SDS011;3454;42.654;23.378;2023-02-01T01:33:37;5.20;;;2.60;;
6832;SDS011;3454;42.654;23.378;2023-02-01T01:36:06;2.67;;;2.47;;
6832;SDS011;3454;42.654;23.378;2023-02-01T01:38:35;3.63;;;2.50;;
6832;SDS011;3454;42.654;23.378;2023-02-01T01:41:00;1.80;;;1.70;;
6832;SDS011;3454;42.654;23.378;2023-02-01T01:43:44;1.67;;;1.57;;
6832;SDS011;3454;42.654;23.378;2023-02-01T01:46:16;2.87;;;1.90;;
6832;SDS011;3454;42.654;23.378;2023-02-01T01:48:48;2.43;;;1.80;;
6832;SDS011;3454;42.654;23.378;2023-02-01T01:51:19;2.40;;;2.10;;
6832;SDS011;3454;42.654;23.378;2023-02-01T01:53:50;5.87;;;2.10;;
6832;SDS011;3454;42.654;23.378;2023-02-01T01:56:24;3.87;;;2.27;;
6832;SDS011;3454;42.654;23.378;2023-02-01T01:58:51;3.20;;;2.00;;
6832;SDS011;3454;42.654;23.378;2023-02-01T02:01:18;2.13;;;1.83;;
6832;SDS011;3454;42.654;23.378;2023-02-01T02:03:44;4.60;;;2.00;;
6832;SDS011;3454;42.654;23.378;2023-02-01T02:06:34;3.10;;;1.93;;
6832;SDS011;3454;42.654;23.378;2023-02-01T02:09:02;2.23;;;2.03;;
6832;SDS011;3454;42.654;23.378;2023-02-01T02:11:28;3.83;;;2.10;;
6832;SDS011;3454;42.654;23.378;2023-02-01T02:13:54;3.13;;;2.10;;
6832;SDS011;3454;42.654;23.378;2023-02-01T02:16:42;3.33;;;1.83;;
6832;SDS011;3454;42.654;23.378;2023-02-01T02:38:36;2.67;;;2.27;;
6832;SDS011;3454;42.654;23.378;2023-02-01T02:47:29;4.93;;;2.30;;
6832;SDS011;3454;42.654;23.378;2023-02-01T02:50:40;2.50;;;1.53;;
6832;SDS011;3454;42.654;23.378;2023-02-01T02:53:35;2.30;;;1.80;;
6832;SDS011;3454;42.654;23.378;2023-02-01T02:56:28;4.20;;;2.17;;
6832;SDS011;3454;42.654;23.378;2023-02-01T02:59:14;2.53;;;1.90;;
6832;SDS011;3454;42.654;23.378;2023-02-01T03:02:01;3.00;;;2.13;;
6832;SDS011;3454;42.654;23.378;2023-02-01T03:04:45;2.80;;;2.27;;
6832;SDS011;3454;42.654;23.378;2023-02-01T03:07:42;3.27;;;1.87;;
6832;SDS011;3454;42.654;23.378;2023-02-01T03:18:31;4.80;;;2.73;;
6832;SDS011;3454;42.654;23.378;2023-02-01T03:20:57;1.97;;;1.77;;
6832;SDS011;3454;42.654;23.378;2023-02-01T03:23:26;1.40;;;1.30;;
6832;SDS011;3454;42.654;23.378;2023-02-01T03:25:55;2.07;;;1.30;;
6832;SDS011;3454;42.654;23.378;2023-02-01T03:28:24;2.70;;;1.60;;
6832;SDS011;3454;42.654;23.378;2023-02-01T03:30:53;1.90;;;1.70;;
6832;SDS011;3454;42.654;23.378;2023-02-01T03:33:19;5.70;;;1.90;;
6832;SDS011;3454;42.654;23.378;2023-02-01T03:38:27;3.23;;;2.13;;
6832;SDS011;3454;42.654;23.378;2023-02-01T03:43:51;3.03;;;1.50;;
6832;SDS011;3454;42.654;23.378;2023-02-01T03:46:25;2.00;;;1.67;;
6832;SDS011;3454;42.654;23.378;2023-02-01T03:48:59;3.03;;;1.20;;
6832;SDS011;3454;42.654;23.378;2023-02-01T03:51:28;1.93;;;1.57;;
6832;SDS011;3454;42.654;23.378;2023-02-01T03:53:55;5.60;;;2.30;;
6832;SDS011;3454;42.654;23.378;2023-02-01T03:56:22;2.33;;;1.43;;
6832;SDS011;3454;42.654;23.378;2023-02-01T03:58:52;3.43;;;1.43;;
6832;SDS011;3454;42.654;23.378;2023-02-01T04:01:27;2.30;;;1.67;;
6832;SDS011;3454;42.654;23.378;2023-02-01T04:03:54;1.87;;;1.20;;
6832;SDS011;3454;42.654;23.378;2023-02-01T04:06:21;3.57;;;1.70;;
6832;SDS011;3454;42.654;23.378;2023-02-01T04:08:46;2.17;;;1.40;;
6832;SDS011;3454;42.654;23.378;2023-02-01T04:11:12;1.30;;;1.20;;
6832;SDS011;3454;42.654;23.378;2023-02-01T04:13:37;3.17;;;1.50;;
6832;SDS011;3454;42.654;23.378;2023-02-01T04:16:03;2.53;;;1.53;;
6832;SDS011;3454;42.654;23.378;2023-02-01T04:18:28;2.17;;;1.23;;
6832;SDS011;3454;42.654;23.378;2023-02-01T04:20:53;3.37;;;1.70;;
6832;SDS011;3454;42.654;23.378;2023-02-01T04:23:19;1.50;;;1.40;;
6832;SDS011;3454;42.654;23.378;2023-02-01T04:25:45;3.43;;;2.13;;
6832;SDS011;3454;42.654;23.378;2023-02-01T04:28:10;3.83;;;1.63;;
6832;SDS011;3454;42.654;23.378;2023-02-01T04:30:36;4.60;;;1.80;;
6832;SDS011;3454;42.654;23.378;2023-02-01T04:33:01;4.73;;;2.10;;
6832;SDS011;3454;42.654;23.378;2023-02-01T04:35:30;2.90;;;1.60;;
6832;SDS011;3454;42.654;23.378;2023-02-01T04:37:55;2.90;;;1.47;;
6832;SDS011;3454;42.654;23.378;2023-02-01T04:40:21;2.87;;;1.63;;
6832;SDS011;3454;42.654;23.378;2023-02-01T04:42:46;2.53;;;1.33;;
6832;SDS011;3454;42.654;23.378;2023-02-01T04:45:12;3.43;;;2.00;;
6832;SDS011;3454;42.654;23.378;2023-02-01T04:47:38;5.20;;;1.97;;
6832;SDS011;3454;42.654;23.378;2023-02-01T04:50:03;2.47;;;2.20;;
6832;SDS011;3454;42.654;23.378;2023-02-01T04:52:30;3.50;;;1.60;;
6832;SDS011;3454;42.654;23.378;2023-02-01T04:54:56;2.63;;;1.80;;
6832;SDS011;3454;42.654;23.378;2023-02-01T04:57:24;3.63;;;2.53;;
6832;SDS011;3454;42.654;23.378;2023-02-01T04:59:50;2.97;;;2.30;;
6832;SDS011;3454;42.654;23.378;2023-02-01T05:02:15;4.07;;;2.70;;
6832;SDS011;3454;42.654;23.378;2023-02-01T05:04:42;3.30;;;2.27;;
6832;SDS011;3454;42.654;23.378;2023-02-01T05:07:07;5.63;;;2.30;;
6832;SDS011;3454;42.654;23.378;2023-02-01T05:09:32;2.37;;;2.10;;
6832;SDS011;3454;42.654;23.378;2023-02-01T05:11:58;3.20;;;2.17;;
6832;SDS011;3454;42.654;23.378;2023-02-01T05:14:42;2.43;;;2.20;;
6832;SDS011;3454;42.654;23.378;2023-02-01T05:17:07;3.97;;;1.93;;
6832;SDS011;3454;42.654;23.378;2023-02-01T05:19:33;5.83;;;2.50;;
6832;SDS011;3454;42.654;23.378;2023-02-01T05:21:58;3.03;;;2.67;;
6832;SDS011;3454;42.654;23.378;2023-02-01T05:24:24;4.20;;;2.63;;
6832;SDS011;3454;42.654;23.378;2023-02-01T05:26:49;4.63;;;2.60;;
6832;SDS011;3454;42.654;23.378;2023-02-01T05:29:15;6.50;;;2.90;;
6832;SDS011;3454;42.654;23.378;2023-02-01T05:31:43;8.00;;;3.07;;
6832;SDS011;3454;42.654;23.378;2023-02-01T05:34:09;6.23;;;2.67;;
6832;SDS011;3454;42.654;23.378;2023-02-01T05:36:35;3.57;;;2.50;;
6832;SDS011;3454;42.654;23.378;2023-02-01T05:39:00;4.20;;;2.63;;
6832;SDS011;3454;42.654;23.378;2023-02-01T05:41:26;4.30;;;2.30;;
6832;SDS011;3454;42.654;23.378;2023-02-01T05:43:51;5.57;;;2.80;;
6832;SDS011;3454;42.654;23.378;2023-02-01T05:46:16;3.13;;;2.20;;
6832;SDS011;3454;42.654;23.378;2023-02-01T05:48:42;4.43;;;2.47;;
6832;SDS011;3454;42.654;23.378;2023-02-01T05:51:08;5.10;;;2.73;;
6832;SDS011;3454;42.654;23.378;2023-02-01T05:53:34;3.13;;;2.70;;
6832;SDS011;3454;42.654;23.378;2023-02-01T05:56:00;3.90;;;3.23;;
6832;SDS011;3454;42.654;23.378;2023-02-01T05:58:25;6.80;;;2.60;;
6832;SDS011;3454;42.654;23.378;2023-02-01T06:00:51;5.57;;;2.83;;
6832;SDS011;3454;42.654;23.378;2023-02-01T06:03:16;4.43;;;2.63;;
6832;SDS011;3454;42.654;23.378;2023-02-01T06:05:45;3.13;;;2.50;;
6832;SDS011;3454;42.654;23.378;2023-02-01T06:08:11;10.10;;;3.07;;
6832;SDS011;3454;42.654;23.378;2023-02-01T06:10:37;4.80;;;3.27;;
6832;SDS011;3454;42.654;23.378;2023-02-01T06:13:02;3.37;;;2.50;;
6832;SDS011;3454;42.654;23.378;2023-02-01T06:15:29;6.90;;;3.00;;
6832;SDS011;3454;42.654;23.378;2023-02-01T06:17:55;4.43;;;2.50;;
6832;SDS011;3454;42.654;23.378;2023-02-01T06:20:20;7.00;;;2.37;;
6832;SDS011;3454;42.654;23.378;2023-02-01T06:22:46;7.27;;;2.70;;
6832;SDS011;3454;42.654;23.378;2023-02-01T06:25:12;4.17;;;2.43;;
6832;SDS011;3454;42.654;23.378;2023-02-01T06:27:37;6.93;;;2.00;;
6832;SDS011;3454;42.654;23.378;2023-02-01T06:30:04;6.83;;;2.23;;
6832;SDS011;3454;42.654;23.378;2023-02-01T06:32:31;7.43;;;2.40;;
6832;SDS011;3454;42.654;23.378;2023-02-01T06:34:56;3.10;;;2.03;;
6832;SDS011;3454;42.654;23.378;2023-02-01T06:37:23;6.47;;;3.43;;
6832;SDS011;3454;42.654;23.378;2023-02-01T06:39:54;5.27;;;3.30;;
6832;SDS011;3454;42.654;23.378;2023-02-01T06:42:19;7.00;;;3.40;;
6832;SDS011;3454;42.654;23.378;2023-02-01T06:44:45;7.57;;;2.63;;
6832;SDS011;3454;42.654;23.378;2023-02-01T06:47:11;4.90;;;2.57;;
6832;SDS011;3454;42.654;23.378;2023-02-01T06:49:36;4.17;;;2.37;;
6832;SDS011;3454;42.654;23.378;2023-02-01T06:52:02;5.53;;;2.13;;
6832;SDS011;3454;42.654;23.378;2023-02-01T06:54:28;4.47;;;2.37;;
6832;SDS011;3454;42.654;23.378;2023-02-01T06:56:54;5.17;;;2.67;;
6832;SDS011;3454;42.654;23.378;2023-02-01T06:59:20;4.97;;;2.47;;
6832;SDS011;3454;42.654;23.378;2023-02-01T07:01:45;5.10;;;2.27;;
6832;SDS011;3454;42.654;23.378;2023-02-01T07:04:11;4.83;;;2.23;;
6832;SDS011;3454;42.654;23.378;2023-02-01T07:06:37;3.27;;;2.20;;
6832;SDS011;3454;42.654;23.378;2023-02-01T07:09:03;5.07;;;2.40;;
6832;SDS011;3454;42.654;23.378;2023-02-01T07:11:29;6.13;;;2.30;;
6832;SDS011;3454;42.654;23.378;2023-02-01T07:13:55;4.07;;;1.83;;
6832;SDS011;3454;42.654;23.378;2023-02-01T07:16:21;3.87;;;1.93;;
6832;SDS011;3454;42.654;23.378;2023-02-01T07:18:47;6.50;;;3.10;;
6832;SDS011;3454;42.654;23.378;2023-02-01T07:21:14;8.40;;;2.37;;
6832;SDS011;3454;42.654;23.378;2023-02-01T07:23:40;3.43;;;2.00;;
6832;SDS011;3454;42.654;23.378;2023-02-01T07:26:06;5.70;;;1.20;;
6832;SDS011;3454;42.654;23.378;2023-02-01T07:28:33;4.37;;;1.63;;
6832;SDS011;3454;42.654;23.378;2023-02-01T07:31:08;2.37;;;1.50;;
6832;SDS011;3454;42.654;23.378;2023-02-01T07:33:36;2.97;;;2.23;;
6832;SDS011;3454;42.654;23.378;2023-02-01T07:36:03;5.23;;;1.90;;
6832;SDS011;3454;42.654;23.378;2023-02-01T07:38:30;3.27;;;1.90;;
6832;SDS011;3454;42.654;23.378;2023-02-01T07:40:56;4.33;;;1.70;;
6832;SDS011;3454;42.654;23.378;2023-02-01T07:43:24;5.33;;;2.10;;
6832;SDS011;3454;42.654;23.378;2023-02-01T07:45:50;4.53;;;1.80;;
6832;SDS011;3454;42.654;23.378;2023-02-01T07:48:24;3.67;;;1.70;;
6832;SDS011;3454;42.654;23.378;2023-02-01T07:51:00;4.73;;;2.53;;
6832;SDS011;3454;42.654;23.378;2023-02-01T07:53:27;2.83;;;1.97;;
6832;SDS011;3454;42.654;23.378;2023-02-01T07:55:54;4.23;;;2.00;;
6832;SDS011;3454;42.654;23.378;2023-02-01T07:58:21;2.50;;;1.90;;
6832;SDS011;3454;42.654;23.378;2023-02-01T08:00:47;5.90;;;1.83;;
6832;SDS011;3454;42.654;23.378;2023-02-01T08:03:34;4.57;;;1.90;;
6832;SDS011;3454;42.654;23.378;2023-02-01T08:06:09;3.73;;;2.37;;
6832;SDS011;3454;42.654;23.378;2023-02-01T08:08:35;4.37;;;1.80;;
6832;SDS011;3454;42.654;23.378;2023-02-01T08:11:01;3.17;;;2.17;;
6832;SDS011;3454;42.654;23.378;2023-02-01T08:13:29;4.00;;;2.40;;
6832;SDS011;3454;42.654;23.378;2023-02-01T08:15:58;4.30;;;2.13;;
6832;SDS011;3454;42.654;23.378;2023-02-01T08:18:26;3.27;;;1.80;;
6832;SDS011;3454;42.654;23.378;2023-02-01T08:20:52;8.20;;;2.77;;
6832;SDS011;3454;42.654;23.378;2023-02-01T08:23:19;5.87;;;1.80;;
6832;SDS011;3454;42.654;23.378;2023-02-01T08:25:48;5.20;;;2.10;;
6832;SDS011;3454;42.654;23.378;2023-02-01T08:28:14;9.23;;;2.40;;
6832;SDS011;3454;42.654;23.378;2023-02-01T08:30:39;3.37;;;1.73;;
6832;SDS011;3454;42.654;23.378;2023-02-01T08:33:07;2.80;;;1.90;;
6832;SDS011;3454;42.654;23.378;2023-02-01T08:35:34;12.83;;;2.47;;
6832;SDS011;3454;42.654;23.378;2023-02-01T08:38:00;5.43;;;1.97;;
6832;SDS011;3454;42.654;23.378;2023-02-01T08:40:26;4.37;;;1.70;;
6832;SDS011;3454;42.654;23.378;2023-02-01T08:42:51;3.63;;;1.93;;
6832;SDS011;3454;42.654;23.378;2023-02-01T08:45:20;5.73;;;2.23;;
6832;SDS011;3454;42.654;23.378;2023-02-01T08:47:49;3.30;;;2.03;;
6832;SDS011;3454;42.654;23.378;2023-02-01T08:50:15;3.70;;;1.73;;
6832;SDS011;3454;42.654;23.378;2023-02-01T08:52:42;2.67;;;1.50;;
6832;SDS011;3454;42.654;23.378;2023-02-01T08:55:08;4.80;;;1.93;;
6832;SDS011;3454;42.654;23.378;2023-02-01T08:57:34;2.60;;;2.00;;
6832;SDS011;3454;42.654;23.378;2023-02-01T08:59:59;2.73;;;2.20;;
6832;SDS011;3454;42.654;23.378;2023-02-01T09:02:25;4.93;;;1.97;;
6832;SDS011;3454;42.654;23.378;2023-02-01T09:04:51;3.33;;;1.80;;
6832;SDS011;3454;42.654;23.378;2023-02-01T09:07:17;3.33;;;2.00;;
6832;SDS011;3454;42.654;23.378;2023-02-01T09:09:43;3.03;;;1.97;;
6832;SDS011;3454;42.654;23.378;2023-02-01T09:12:09;3.87;;;2.00;;
6832;SDS011;3454;42.654;23.378;2023-02-01T09:14:36;4.63;;;2.13;;
6832;SDS011;3454;42.654;23.378;2023-02-01T09:17:02;5.73;;;1.90;;
6832;SDS011;3454;42.654;23.378;2023-02-01T09:19:27;9.67;;;2.20;;
6832;SDS011;3454;42.654;23.378;2023-02-01T09:21:53;3.30;;;1.83;;
6832;SDS011;3454;42.654;23.378;2023-02-01T09:24:18;1.40;;;1.30;;
6832;SDS011;3454;42.654;23.378;2023-02-01T09:26:44;4.37;;;1.90;;
6832;SDS011;3454;42.654;23.378;2023-02-01T09:29:09;10.13;;;3.47;;
6832;SDS011;3454;42.654;23.378;2023-02-01T09:31:35;8.83;;;2.70;;
6832;SDS011;3454;42.654;23.378;2023-02-01T09:34:00;2.23;;;1.60;;
6832;SDS011;3454;42.654;23.378;2023-02-01T09:36:26;3.07;;;2.00;;
6832;SDS011;3454;42.654;23.378;2023-02-01T09:38:52;5.53;;;1.90;;
6832;SDS011;3454;42.654;23.378;2023-02-01T09:44:24;2.10;;;1.50;;
6832;SDS011;3454;42.654;23.378;2023-02-01T09:47:14;4.13;;;1.20;;
6832;SDS011;3454;42.654;23.378;2023-02-01T09:49:47;3.30;;;1.90;;
6832;SDS011;3454;42.654;23.378;2023-02-01T09:58:04;2.10;;;1.50;;
6832;SDS011;3454;42.654;23.378;2023-02-01T10:00:34;2.73;;;1.43;;
6832;SDS011;3454;42.654;23.378;2023-02-01T10:03:02;5.03;;;1.87;;
6832;SDS011;3454;42.654;23.378;2023-02-01T10:20:39;5.67;;;1.40;;
6832;SDS011;3454;42.654;23.378;2023-02-01T10:26:08;4.37;;;1.70;;
6832;SDS011;3454;42.654;23.378;2023-02-01T10:28:42;5.87;;;2.50;;
6832;SDS011;3454;42.654;23.378;2023-02-01T10:31:12;3.53;;;1.57;;
6832;SDS011;3454;42.654;23.378;2023-02-01T10:33:41;4.07;;;1.77;;
6832;SDS011;3454;42.654;23.378;2023-02-01T10:38:50;4.00;;;1.63;;
6832;SDS011;3454;42.654;23.378;2023-02-01T10:41:26;1.97;;;1.60;;
6832;SDS011;3454;42.654;23.378;2023-02-01T10:43:58;3.57;;;1.93;;
6832;SDS011;3454;42.654;23.378;2023-02-01T10:46:25;2.83;;;2.10;;
6832;SDS011;3454;42.654;23.378;2023-02-01T10:48:52;2.53;;;1.63;;
6832;SDS011;3454;42.654;23.378;2023-02-01T10:53:50;3.03;;;1.47;;
6832;SDS011;3454;42.654;23.378;2023-02-01T10:56:23;3.03;;;1.80;;
6832;SDS011;3454;42.654;23.378;2023-02-01T10:58:49;2.43;;;1.20;;
6832;SDS011;3454;42.654;23.378;2023-02-01T11:01:20;3.03;;;1.57;;
6832;SDS011;3454;42.654;23.378;2023-02-01T11:03:52;1.90;;;1.30;;
6832;SDS011;3454;42.654;23.378;2023-02-01T11:06:41;2.80;;;1.80;;
6832;SDS011;3454;42.654;23.378;2023-02-01T11:12:10;5.30;;;2.03;;
6832;SDS011;3454;42.654;23.378;2023-02-01T11:14:28;4.27;;;1.60;;
6832;SDS011;3454;42.654;23.378;2023-02-01T11:19:46;3.50;;;1.57;;
6832;SDS011;3454;42.654;23.378;2023-02-01T11:22:20;2.17;;;1.10;;
6832;SDS011;3454;42.654;23.378;2023-02-01T11:24:46;4.33;;;1.30;;
6832;SDS011;3454;42.654;23.378;2023-02-01T11:27:14;3.50;;;1.40;;
6832;SDS011;3454;42.654;23.378;2023-02-01T11:29:43;2.47;;;1.50;;
6832;SDS011;3454;42.654;23.378;2023-02-01T11:32:12;1.73;;;1.30;;
6832;SDS011;3454;42.654;23.378;2023-02-01T11:34:43;5.07;;;1.67;;
6832;SDS011;3454;42.654;23.378;2023-02-01T11:37:17;3.40;;;1.47;;
6832;SDS011;3454;42.654;23.378;2023-02-01T11:39:53;3.43;;;1.30;;
6832;SDS011;3454;42.654;23.378;2023-02-01T11:42:30;2.37;;;1.00;;
6832;SDS011;3454;42.654;23.378;2023-02-01T11:48:02;2.53;;;1.40;;
6832;SDS011;3454;42.654;23.378;2023-02-01T11:50:35;1.17;;;0.90;;
6832;SDS011;3454;42.654;23.378;2023-02-01T12:03:52;1.37;;;0.97;;
6832;SDS011;3454;42.654;23.378;2023-02-01T12:22:29;3.50;;;1.20;;
6832;SDS011;3454;42.654;23.378;2023-02-01T12:38:27;3.63;;;1.43;;
6832;SDS011;3454;42.654;23.378;2023-02-01T12:41:33;2.07;;;1.20;;
6832;SDS011;3454;42.654;23.378;2023-02-01T12:47:02;4.67;;;1.30;;
6832;SDS011;3454;42.654;23.378;2023-02-01T12:52:16;1.83;;;1.07;;
6832;SDS011;3454;42.654;23.378;2023-02-01T12:54:54;2.27;;;1.30;;
6832;SDS011;3454;42.654;23.378;2023-02-01T12:57:27;1.03;;;0.90;;
6832;SDS011;3454;42.654;23.378;2023-02-01T13:02:50;4.57;;;1.13;;
6832;SDS011;3454;42.654;23.378;2023-02-01T13:05:24;2.70;;;1.30;;
6832;SDS011;3454;42.654;23.378;2023-02-01T13:08:04;2.73;;;1.13;;
6832;SDS011;3454;42.654;23.378;2023-02-01T13:10:35;3.27;;;1.30;;
6832;SDS011;3454;42.654;23.378;2023-02-01T13:13:16;1.97;;;1.20;;
6832;SDS011;3454;42.654;23.378;2023-02-01T13:15:49;1.83;;;1.40;;
6832;SDS011;3454;42.654;23.378;2023-02-01T13:18:33;1.63;;;1.00;;
6832;SDS011;3454;42.654;23.378;2023-02-01T13:21:13;4.13;;;1.37;;
6832;SDS011;3454;42.654;23.378;2023-02-01T13:23:43;1.73;;;0.97;;
6832;SDS011;3454;42.654;23.378;2023-02-01T13:26:11;1.23;;;1.00;;
6832;SDS011;3454;42.654;23.378;2023-02-01T13:42:21;4.17;;;1.00;;
6832;SDS011;3454;42.654;23.378;2023-02-01T13:45:02;1.70;;;1.10;;
6832;SDS011;3454;42.654;23.378;2023-02-01T13:47:35;1.57;;;1.03;;
6832;SDS011;3454;42.654;23.378;2023-02-01T13:50:13;1.77;;;1.10;;
6832;SDS011;3454;42.654;23.378;2023-02-01T13:52:59;2.77;;;1.20;;
6832;SDS011;3454;42.654;23.378;2023-02-01T13:55:33;3.93;;;1.00;;
6832;SDS011;3454;42.654;23.378;2023-02-01T13:58:05;2.27;;;1.20;;
6832;SDS011;3454;42.654;23.378;2023-02-01T14:00:35;1.90;;;1.10;;
6832;SDS011;3454;42.654;23.378;2023-02-01T14:26:46;2.10;;;1.10;;
6832;SDS011;3454;42.654;23.378;2023-02-01T14:34:18;1.03;;;0.93;;
6832;SDS011;3454;42.654;23.378;2023-02-01T14:36:58;2.10;;;1.17;;
6832;SDS011;3454;42.654;23.378;2023-02-01T14:39:31;2.30;;;1.27;;
6832;SDS011;3454;42.654;23.378;2023-02-01T14:42:02;3.37;;;1.20;;
6832;SDS011;3454;42.654;23.378;2023-02-01T14:44:34;3.80;;;1.40;;
6832;SDS011;3454;42.654;23.378;2023-02-01T14:52:36;1.40;;;1.17;;
6832;SDS011;3454;42.654;23.378;2023-02-01T14:55:11;2.30;;;1.20;;
6832;SDS011;3454;42.654;23.378;2023-02-01T14:57:44;2.47;;;1.50;;
6832;SDS011;3454;42.654;23.378;2023-02-01T15:00:16;3.70;;;1.83;;
6832;SDS011;3454;42.654;23.378;2023-02-01T15:02:47;3.93;;;1.40;;
6832;SDS011;3454;42.654;23.378;2023-02-01T15:07:51;1.43;;;1.03;;
6832;SDS011;3454;42.654;23.378;2023-02-01T15:10:18;3.33;;;1.80;;
6832;SDS011;3454;42.654;23.378;2023-02-01T15:12:45;5.50;;;1.50;;
6832;SDS011;3454;42.654;23.378;2023-02-01T15:15:21;1.93;;;1.20;;
6832;SDS011;3454;42.654;23.378;2023-02-01T15:20:26;1.57;;;1.13;;
6832;SDS011;3454;42.654;23.378;2023-02-01T15:25:23;3.27;;;1.20;;
6832;SDS011;3454;42.654;23.378;2023-02-01T15:27:50;1.67;;;1.47;;
6832;SDS011;3454;42.654;23.378;2023-02-01T15:30:20;2.20;;;1.30;;
6832;SDS011;3454;42.654;23.378;2023-02-01T15:32:47;2.10;;;1.50;;
6832;SDS011;3454;42.654;23.378;2023-02-01T15:46:15;1.93;;;1.00;;
6832;SDS011;3454;42.654;23.378;2023-02-01T15:48:48;1.57;;;1.10;;
6832;SDS011;3454;42.654;23.378;2023-02-01T15:51:17;3.53;;;1.50;;
6832;SDS011;3454;42.654;23.378;2023-02-01T15:53:57;3.23;;;1.77;;
6832;SDS011;3454;42.654;23.378;2023-02-01T15:56:29;1.97;;;1.17;;
6832;SDS011;3454;42.654;23.378;2023-02-01T15:59:01;4.73;;;1.70;;
6832;SDS011;3454;42.654;23.378;2023-02-01T16:01:29;3.60;;;2.17;;
6832;SDS011;3454;42.654;23.378;2023-02-01T16:06:48;1.30;;;0.93;;
6832;SDS011;3454;42.654;23.378;2023-02-01T16:09:20;2.90;;;1.10;;
6832;SDS011;3454;42.654;23.378;2023-02-01T16:14:12;1.90;;;1.00;;
6832;SDS011;3454;42.654;23.378;2023-02-01T16:16:38;4.13;;;2.50;;
6832;SDS011;3454;42.654;23.378;2023-02-01T16:19:03;1.50;;;1.20;;
6832;SDS011;3454;42.654;23.378;2023-02-01T16:21:29;2.10;;;1.30;;
6832;SDS011;3454;42.654;23.378;2023-02-01T16:23:54;1.70;;;1.00;;
6832;SDS011;3454;42.654;23.378;2023-02-01T16:26:20;0.93;;;0.90;;
6832;SDS011;3454;42.654;23.378;2023-02-01T16:28:45;1.90;;;1.17;;
6832;SDS011;3454;42.654;23.378;2023-02-01T16:31:12;3.37;;;1.50;;
6832;SDS011;3454;42.654;23.378;2023-02-01T16:33:46;4.07;;;1.60;;
6832;SDS011;3454;42.654;23.378;2023-02-01T16:36:16;1.67;;;1.13;;
6832;SDS011;3454;42.654;23.378;2023-02-01T16:38:43;2.40;;;1.50;;
6832;SDS011;3454;42.654;23.378;2023-02-01T16:41:12;2.10;;;1.50;;
6832;SDS011;3454;42.654;23.378;2023-02-01T16:43:38;3.30;;;1.53;;
6832;SDS011;3454;42.654;23.378;2023-02-01T16:46:04;1.57;;;1.27;;
6832;SDS011;3454;42.654;23.378;2023-02-01T16:48:30;4.27;;;1.70;;
6832;SDS011;3454;42.654;23.378;2023-02-01T16:51:00;2.20;;;1.70;;
6832;SDS011;3454;42.654;23.378;2023-02-01T16:53:28;7.70;;;1.60;;
6832;SDS011;3454;42.654;23.378;2023-02-01T16:55:55;5.10;;;1.53;;
6832;SDS011;3454;42.654;23.378;2023-02-01T16:58:22;5.17;;;2.40;;
6832;SDS011;3454;42.654;23.378;2023-02-01T17:00:48;5.57;;;1.87;;
6832;SDS011;3454;42.654;23.378;2023-02-01T17:03:16;7.77;;;2.30;;
6832;SDS011;3454;42.654;23.378;2023-02-01T17:05:52;3.20;;;1.80;;
6832;SDS011;3454;42.654;23.378;2023-02-01T17:08:33;4.23;;;2.00;;
6832;SDS011;3454;42.654;23.378;2023-02-01T17:11:00;5.30;;;2.13;;
6832;SDS011;3454;42.654;23.378;2023-02-01T17:13:27;4.23;;;1.63;;
6832;SDS011;3454;42.654;23.378;2023-02-01T17:15:56;5.10;;;1.77;;
6832;SDS011;3454;42.654;23.378;2023-02-01T17:18:24;3.50;;;2.33;;
6832;SDS011;3454;42.654;23.378;2023-02-01T17:20:57;4.40;;;2.40;;
6832;SDS011;3454;42.654;23.378;2023-02-01T17:23:23;6.30;;;2.03;;
6832;SDS011;3454;42.654;23.378;2023-02-01T17:25:49;4.63;;;2.37;;
6832;SDS011;3454;42.654;23.378;2023-02-01T17:28:14;3.57;;;2.00;;
6832;SDS011;3454;42.654;23.378;2023-02-01T17:30:40;4.87;;;2.20;;
6832;SDS011;3454;42.654;23.378;2023-02-01T17:33:11;3.83;;;2.00;;
6832;SDS011;3454;42.654;23.378;2023-02-01T17:36:00;4.00;;;2.37;;
6832;SDS011;3454;42.654;23.378;2023-02-01T17:38:26;4.50;;;2.60;;
6832;SDS011;3454;42.654;23.378;2023-02-01T17:40:52;4.93;;;2.10;;
6832;SDS011;3454;42.654;23.378;2023-02-01T17:43:20;4.33;;;1.70;;
6832;SDS011;3454;42.654;23.378;2023-02-01T17:48:18;2.77;;;1.93;;
6832;SDS011;3454;42.654;23.378;2023-02-01T17:50:45;2.43;;;1.73;;
6832;SDS011;3454;42.654;23.378;2023-02-01T17:53:12;2.30;;;1.50;;
6832;SDS011;3454;42.654;23.378;2023-02-01T17:55:43;1.93;;;1.20;;
6832;SDS011;3454;42.654;23.378;2023-02-01T17:58:10;2.23;;;1.60;;
6832;SDS011;3454;42.654;23.378;2023-02-01T18:00:37;5.20;;;1.80;;
6832;SDS011;3454;42.654;23.378;2023-02-01T18:03:03;4.90;;;2.73;;
6832;SDS011;3454;42.654;23.378;2023-02-01T18:05:34;4.20;;;1.70;;
6832;SDS011;3454;42.654;23.378;2023-02-01T18:08:04;2.60;;;1.60;;
6832;SDS011;3454;42.654;23.378;2023-02-01T18:10:30;1.93;;;1.40;;
6832;SDS011;3454;42.654;23.378;2023-02-01T18:12:55;3.27;;;1.87;;
6832;SDS011;3454;42.654;23.378;2023-02-01T18:15:22;2.73;;;1.40;;
6832;SDS011;3454;42.654;23.378;2023-02-01T18:17:49;3.77;;;1.57;;
6832;SDS011;3454;42.654;23.378;2023-02-01T18:20:24;4.00;;;1.50;;
6832;SDS011;3454;42.654;23.378;2023-02-01T18:22:51;2.33;;;1.50;;
6832;SDS011;3454;42.654;23.378;2023-02-01T18:27:44;1.87;;;1.40;;
6832;SDS011;3454;42.654;23.378;2023-02-01T18:30:17;1.23;;;1.10;;
6832;SDS011;3454;42.654;23.378;2023-02-01T18:32:46;3.40;;;2.07;;
6832;SDS011;3454;42.654;23.378;2023-02-01T18:35:23;10.03;;;4.50;;
6832;SDS011;3454;42.654;23.378;2023-02-01T18:37:53;8.60;;;5.47;;